Latest Weather Observations for Scoresby

IDV60801

Issued at 10:32 pm EST Sunday 3 July 2022 (issued every 10 minutes, with the page automatically refreshed every 10 minutes)

About weather observations | Map of weather stations | Latest weather observations for VIC | Other Formats
Station Details ID: 086104 Name: SCORESBY RESEARCH INSTITUTE Lat: -37.87 Lon: 145.26 Height: 80.0 m
Data from the previous 72 hours. | See also: Recent months at Scoresby
Date/Time
EST
Temp
°C
App
Temp
°C
Dew
Point
°C
Rel
Hum
%
Delta-T
°C
Wind Press
QNH
hPa
Press
MSL
hPa
Rain since
9am
mm
Dir  Spd
km/h
Gust
km/h
Spd
kts
Gust
kts
03/10:30pm 6.4 3.7 3.7 83 1.1 WSW 7 13 4 7 - - 0.0
03/10:00pm 6.8 3.8 4.1 83 1.2 WSW 9 15 5 8 - - 0.0
03/09:30pm 7.0 4.0 4.1 82 1.3 WSW 9 13 5 7 - - 0.0
03/09:00pm 6.9 4.3 4.0 82 1.2 SW 7 9 4 5 - - 0.0
03/08:30pm 7.3 4.9 4.3 81 1.3 S 6 11 3 6 - - 0.0
03/08:00pm 6.8 4.7 3.9 82 1.2 S 4 9 2 5 - - 0.0
03/07:30pm 7.8 6.5 4.2 78 1.6 CALM 0 4 0 2 - - 0.0
03/07:00pm 8.7 6.3 4.3 74 1.9 SSW 6 11 3 6 - - 0.0
03/06:30pm 9.2 6.3 4.4 72 2.1 S 9 19 5 10 - - 0.0
03/06:00pm 9.5 6.6 4.9 73 2.1 S 9 19 5 10 - - 0.0
03/05:30pm 10.0 7.1 4.8 70 2.3 S 9 19 5 10 - - 0.0
03/05:00pm 10.4 7.9 5.0 69 2.5 S 7 17 4 9 - - 0.0
03/04:30pm 10.7 7.5 5.0 68 2.6 S 11 20 6 11 - - 0.0
03/04:00pm 10.9 8.1 5.0 67 2.7 S 9 20 5 11 - - 0.0
03/03:30pm 11.0 7.4 4.9 66 2.8 SSE 13 20 7 11 - - 0.0
03/03:00pm 11.3 7.7 5.2 66 2.8 S 13 26 7 14 - - 0.0
03/02:30pm 11.4 8.2 5.1 65 2.9 SSE 11 24 6 13 - - 0.0
03/02:00pm 11.6 8.0 5.0 64 3.0 S 13 24 7 13 - - 0.0
03/01:30pm 11.6 8.0 5.0 64 3.0 SSE 13 22 7 12 - - 0.0
03/01:00pm 11.5 8.7 5.2 65 2.9 S 9 19 5 10 - - 0.0
03/12:30pm 11.3 7.7 5.0 65 2.9 SSE 13 19 7 10 - - 0.0
03/12:00pm 11.4 8.2 5.1 65 2.9 SSE 11 20 6 11 - - 0.0
03/11:30am 11.4 7.9 5.3 66 2.8 SSE 13 22 7 12 - - 0.0
03/11:00am 11.0 8.0 6.2 72 2.3 SSE 11 20 6 11 - - 0.0
03/10:30am 9.8 7.1 5.6 75 1.9 S 9 15 5 8 - - 0.0
03/10:00am 8.7 5.9 5.3 79 1.5 S 9 17 5 9 - - 0.0
03/09:30am 7.5 5.6 6.8 95 0.3 SSW 6 9 3 5 - - 0.0
03/09:00am 5.3 4.2 5.2 99 0.0 CALM 0 4 0 2 - - 0.2
03/08:30am 3.5 1.7 3.4 99 0.0 SW 2 6 1 3 - - 0.2
03/08:00am 1.5 -0.3 1.4 99 0.0 CALM 0 0 0 0 - - 0.2
03/07:30am 1.9 0.2 1.8 99 0.0 CALM 0 0 0 0 - - 0.2
03/07:00am 1.8 0.0 1.5 98 0.1 CALM 0 0 0 0 - - 0.2
03/06:30am 3.2 1.7 3.1 99 0.0 CALM 0 0 0 0 - - 0.2
03/06:00am 3.1 1.6 3.0 99 0.0 CALM 0 0 0 0 - - 0.2
03/05:30am 3.2 1.7 3.1 99 0.0 CALM 0 0 0 0 - - 0.0
03/05:00am 2.4 0.4 2.3 99 0.0 WNW 2 6 1 3 - - 0.0
03/04:30am 2.8 1.2 2.5 98 0.1 CALM 0 0 0 0 - - 0.0
03/04:00am 3.3 1.8 3.0 98 0.1 CALM 0 0 0 0 - - 0.0
03/03:30am 3.4 1.5 3.1 98 0.1 SW 2 4 1 2 - - 0.0
03/03:00am 3.8 2.0 3.5 98 0.1 SW 2 4 1 2 - - 0.0
03/02:30am 3.9 1.7 3.6 98 0.1 WSW 4 6 2 3 - - 0.0
03/02:00am 4.5 3.2 4.2 98 0.1 CALM 0 0 0 0 - - 0.0
03/01:30am 4.5 3.2 4.1 97 0.2 CALM 0 0 0 0 - - 0.0
03/01:00am 4.7 3.4 4.3 97 0.2 CALM 0 4 0 2 - - 0.0
03/12:30am 5.2 4.0 4.8 97 0.2 CALM 0 2 0 1 - - 0.0
03/12:00am 5.2 3.6 4.6 96 0.3 S 2 6 1 3 - - 0.0
 
Date/Time
EST
Temp
°C
App
Temp
°C
Dew
Point
°C
Rel
Hum
%
Delta-T
°C
Wind Press
QNH
hPa
Press
MSL
hPa
Rain since
9am
mm
Dir  Spd
km/h
Gust
km/h
Spd
kts
Gust
kts
02/11:30pm 5.3 4.1 4.4 94 0.4 CALM 0 0 0 0 - - 0.0
02/11:00pm 6.1 5.1 5.4 95 0.3 CALM 0 4 0 2 - - 0.0
02/10:30pm 6.1 5.0 5.2 94 0.4 CALM 0 4 0 2 - - 0.0
02/10:00pm 6.9 5.1 5.5 91 0.6 SSW 4 6 2 3 - - 0.0
02/09:30pm 7.8 6.1 5.9 88 0.9 SSW 4 6 2 3 - - 0.0
02/09:00pm 8.8 7.6 6.6 86 1.0 S 2 6 1 3 - - 0.0
02/08:30pm 8.9 7.4 6.7 86 1.0 SSW 4 6 2 3 - - 0.0
02/08:00pm 9.1 8.0 6.7 85 1.1 S 2 6 1 3 - - 0.0
02/07:30pm 9.5 8.0 6.8 83 1.3 SSE 4 9 2 5 - - 0.0
02/07:00pm 9.7 7.8 6.8 82 1.4 SSE 6 9 3 5 - - 0.0
02/06:30pm 9.8 7.8 6.9 82 1.4 S 7 13 4 7 - - 0.0
02/06:00pm 9.9 7.8 6.8 81 1.5 S 7 17 4 9 - - 0.0
02/05:30pm 10.1 7.9 6.4 78 1.7 SSE 7 17 4 9 - - 0.0
02/05:00pm 10.6 8.0 6.0 73 2.1 S 9 15 5 8 - - 0.0
02/04:30pm 10.9 8.3 6.3 73 2.2 S 9 17 5 9 - - 0.0
02/04:00pm 11.0 8.7 5.5 69 2.5 SSE 7 15 4 8 - - 0.0
02/03:30pm 12.1 10.0 6.8 70 2.5 S 7 13 4 7 - - 0.0
02/03:00pm 11.6 9.4 5.5 66 2.8 SSE 6 11 3 6 - - 0.0
02/02:30pm 12.8 10.2 5.9 63 3.3 SSE 9 20 5 11 - - 0.0
02/02:00pm 11.8 8.4 5.7 66 2.8 S 13 22 7 12 - - 0.0
02/01:30pm 12.2 9.5 5.6 64 3.1 SSE 9 19 5 10 - - 0.0
02/01:00pm 12.3 9.6 7.2 71 2.5 SSE 11 20 6 11 - - 0.0
02/12:30pm 11.3 8.9 7.0 75 2.1 SSE 9 17 5 9 - - 0.0
02/12:00pm 10.7 8.0 7.2 79 1.7 S 11 19 6 10 - - 0.0
02/11:30am 11.3 9.5 7.8 79 1.7 SSW 7 13 4 7 - - 0.0
02/11:00am 10.6 8.8 8.0 84 1.3 SSW 7 13 4 7 - - 0.0
02/10:30am 9.8 8.0 7.9 88 0.9 S 7 13 4 7 - - 0.0
02/10:00am 9.1 8.4 8.5 96 0.3 SW 2 7 1 4 - - 0.0
02/09:30am 7.9 7.0 7.8 99 0.0 WSW 2 6 1 3 - - 0.0
02/09:00am 7.0 6.3 6.9 99 0.0 CALM 0 0 0 0 - - 0.0
02/08:30am 5.6 4.6 5.5 99 0.0 CALM 0 0 0 0 - - 0.0
02/08:00am 2.7 1.1 2.6 99 0.0 CALM 0 0 0 0 - - 0.0
02/07:30am 2.3 0.6 2.0 98 0.1 CALM 0 0 0 0 - - 0.0
02/07:00am 2.4 0.7 2.1 98 0.1 CALM 0 0 0 0 - - 0.0
02/06:30am 2.7 1.1 2.4 98 0.1 CALM 0 0 0 0 - - 0.0
02/06:00am 2.7 1.1 2.4 98 0.1 CALM 0 0 0 0 - - 0.0
02/05:30am 3.8 2.4 3.5 98 0.1 CALM 0 0 0 0 - - 0.0
02/05:00am 3.3 1.8 2.9 97 0.2 CALM 0 0 0 0 - - 0.0
02/04:30am 4.1 2.7 3.7 97 0.2 CALM 0 0 0 0 - - 0.0
02/04:00am 4.9 3.7 4.5 97 0.2 CALM 0 0 0 0 - - 0.0
02/03:30am 5.5 4.4 4.9 96 0.3 CALM 0 4 0 2 - - 0.0
02/03:00am 6.4 4.7 5.8 96 0.3 SSW 4 6 2 3 - - 0.0
02/02:30am 6.7 5.7 5.8 94 0.4 CALM 0 0 0 0 - - 0.0
02/02:00am 7.7 6.4 6.2 90 0.7 S 2 4 1 2 - - 0.0
02/01:30am 7.9 7.0 6.2 89 0.8 CALM 0 0 0 0 - - 0.0
02/01:00am 8.1 7.3 6.6 90 0.7 CALM 0 0 0 0 - - 0.0
02/12:30am 7.9 6.8 6.7 92 0.6 SSW 2 4 1 2 - - 0.0
02/12:00am 7.6 6.4 6.4 92 0.5 S 2 4 1 2 - - 0.0
 
Date/Time
EST
Temp
°C
App
Temp
°C
Dew
Point
°C
Rel
Hum
%
Delta-T
°C
Wind Press
QNH
hPa
Press
MSL
hPa
Rain since
9am
mm
Dir  Spd
km/h
Gust
km/h
Spd
kts
Gust
kts
01/11:30pm 8.2 7.0 6.5 89 0.8 SSW 2 4 1 2 - - 0.0
01/11:00pm 9.3 8.2 6.9 85 1.1 S 2 4 1 2 - - 0.0
01/10:30pm 9.3 8.2 6.9 85 1.1 SE 2 6 1 3 - - 0.0
01/10:00pm 9.3 8.2 7.1 86 1.0 SSE 2 6 1 3 - - 0.0
01/09:30pm 8.9 7.4 6.9 87 0.9 SSE 4 6 2 3 - - 0.0
01/09:00pm 9.4 8.0 7.2 86 1.0 S 4 7 2 4 - - 0.0
01/08:30pm 9.9 8.6 7.7 86 1.1 S 4 9 2 5 - - 0.0
01/08:00pm 10.1 8.9 8.0 87 1.0 S 4 7 2 4 - - 0.0
01/07:30pm 10.0 8.5 8.3 89 0.8 SSW 6 7 3 4 - - 0.0
01/07:00pm 10.0 8.9 8.3 89 0.8 SSW 4 9 2 5 - - 0.0
01/06:30pm 10.2 9.1 8.3 88 0.9 SSE 4 9 2 5 - - 0.0
01/06:00pm 10.5 9.0 8.4 87 1.0 SSE 6 11 3 6 - - 0.0
01/05:30pm 10.7 9.3 8.8 88 0.9 SSW 6 13 3 7 - - 0.0
01/05:00pm 10.9 9.3 8.7 86 1.1 SSW 7 15 4 8 - - 0.0
01/04:30pm 11.4 9.5 9.0 85 1.2 SSW 9 15 5 8 - - 0.0
01/04:00pm 11.4 8.7 8.8 84 1.3 SSW 13 22 7 12 - - 0.0
01/03:30pm 12.1 9.8 8.9 81 1.6 SSW 11 20 6 11 - - 0.0
01/03:00pm 12.5 10.1 8.6 77 1.9 S 11 19 6 10 - - 0.0
01/02:30pm 12.4 10.0 8.7 78 1.9 S 11 17 6 9 - - 0.0
01/02:00pm 12.1 10.5 8.8 80 1.7 S 7 15 4 8 - - 0.0
01/01:30pm 11.9 10.0 8.9 82 1.5 SSW 9 15 5 8 - - 0.0
01/01:00pm 12.0 10.7 9.2 83 1.4 SSW 6 9 3 5 - - 0.0
01/12:30pm 12.0 10.5 9.2 83 1.4 SSW 7 13 4 7 - - 0.0
01/12:00pm 11.3 10.3 8.7 84 1.3 SSW 4 7 2 4 - - 0.0
01/11:30am 10.9 10.5 8.3 84 1.3 CALM 0 4 0 2 - - 0.0
01/11:00am 10.2 9.5 7.1 81 1.5 CALM 0 0 0 0 - - 0.0
01/10:30am 9.8 9.0 6.7 81 1.5 CALM 0 0 0 0 - - 0.0
01/10:00am 8.1 7.3 6.6 90 0.7 CALM 0 2 0 1 - - 0.0
01/09:30am 6.2 5.1 5.2 93 0.4 CALM 0 2 0 1 - - 0.0
01/09:00am 5.6 3.7 4.7 94 0.4 NNE 4 6 2 3 - - 0.0
01/08:30am 5.1 3.5 4.5 96 0.3 NNE 2 4 1 2 - - 0.0
01/08:00am 4.8 3.1 4.2 96 0.3 ENE 2 6 1 3 - - 0.0
01/07:30am 4.6 2.5 4.0 96 0.3 NE 4 7 2 4 - - 0.0
01/07:00am 4.7 2.6 4.1 96 0.3 NE 4 7 2 4 - - 0.0
01/06:30am 4.7 3.4 4.1 96 0.3 CALM 0 0 0 0 - - 0.0
01/06:00am 4.4 3.0 3.7 95 0.3 CALM 0 2 0 1 - - 0.0
01/05:30am 4.3 2.9 3.6 95 0.3 CALM 0 0 0 0 - - 0.0
01/05:00am 5.0 3.4 4.3 95 0.3 NE 2 4 1 2 - - 0.0
01/04:30am 5.1 3.2 4.7 97 0.2 NE 4 6 2 3 - - 0.0
01/04:00am 4.9 3.7 4.6 98 0.1 CALM 0 0 0 0 - - 0.0
01/03:30am 4.3 3.0 3.9 97 0.2 CALM 0 0 0 0 - - 0.0
01/03:00am 4.9 3.7 4.6 98 0.1 CALM 0 0 0 0 - - 0.0
01/02:30am 4.3 3.0 4.0 98 0.1 CALM 0 0 0 0 - - 0.0
01/02:00am 4.1 2.7 3.8 98 0.1 CALM 0 0 0 0 - - 0.0
01/01:30am 3.7 2.3 3.6 99 0.0 CALM 0 0 0 0 - - 0.0
01/01:00am 2.3 0.6 2.0 98 0.1 CALM 0 0 0 0 - - 0.0
01/12:30am 1.9 0.2 1.6 98 0.1 CALM 0 0 0 0 - - 0.0
01/12:00am 2.1 0.4 1.8 98 0.1 CALM 0 0 0 0 - - 0.0
 
Date/Time
EST
Temp
°C
App
Temp
°C
Dew
Point
°C
Rel
Hum
%
Delta-T
°C
Wind Press
QNH
hPa
Press
MSL
hPa
Rain since
9am
mm
Dir  Spd
km/h
Gust
km/h
Spd
kts
Gust
kts
30/11:30pm 2.1 0.4 1.7 97 0.2 CALM 0 0 0 0 - - 0.0
30/11:00pm 2.3 0.6 1.9 97 0.2 CALM 0 0 0 0 - - 0.0

Other formats

Comma delimited format used in spreadsheet applications
http://www.bom.gov.au/fwo/IDV60801/IDV60801.95867.axf

JavaScript Object Notation format (JSON) in row-major order
http://www.bom.gov.au/fwo/IDV60801/IDV60801.95867.json

Data quality

Most of these data are generated automatically and are frequently updated. Quality checks on data are not normally performed. It is possible for incorrect values to appear. Refer to information at About Latest Weather Observations and please check the disclaimer before using these data.